KLM21B EHAM-EDDW
Flight info
| Callsign | KLM21B |
|---|---|
| Flight time | 0h 30m |
| Altitude | 23000 |
| Route | ANDIK M105 REVLA T948 GIBMA GIBMA2P |
| Aircraft | E75L/M-SDE3GILORVW/S |
Departure
| Time | 2026-05-06 12:25 |
|---|---|
| Airport | Amsterdam Airport Schiphol (EHAM) |
Arrival
| Time | 2026-05-06 12:55 |
|---|---|
| Airport | Bremen Airport (EDDW) |
| Time | Latitude | Longitude | Altitude | Speed | Heading |
|---|---|---|---|---|---|
| 2026-05-06 11:59 | 52.30362 | 4.76181 | -3 ft | 0 kts | 58° |
| 2026-05-06 11:59 | 52.30362 | 4.76182 | -3 ft | 0 kts | 58° |
| 2026-05-06 12:16 | 52.30356 | 4.76166 | -3 ft | 4 kts | 59° |
| 2026-05-06 12:16 | 52.30346 | 4.76127 | -3 ft | 4 kts | 94° |
| 2026-05-06 12:16 | 52.30351 | 4.76109 | -3 ft | 1 kts | 138° |
| 2026-05-06 12:18 | 52.30351 | 4.76110 | -3 ft | 0 kts | 138° |
| 2026-05-06 12:19 | 52.30349 | 4.76112 | -3 ft | 0 kts | 148° |
| 2026-05-06 12:19 | 52.30346 | 4.76114 | -3 ft | 2 kts | 149° |
| 2026-05-06 12:19 | 52.30305 | 4.76157 | -3 ft | 12 kts | 150° |
| 2026-05-06 12:20 | 52.30229 | 4.76233 | -3 ft | 13 kts | 148° |
| 2026-05-06 12:20 | 52.30178 | 4.76215 | -3 ft | 8 kts | 232° |
| 2026-05-06 12:20 | 52.30136 | 4.76111 | -3 ft | 15 kts | 238° |
| 2026-05-06 12:20 | 52.30071 | 4.75940 | -3 ft | 19 kts | 235° |
| 2026-05-06 12:21 | 52.29996 | 4.75748 | -3 ft | 21 kts | 238° |
| 2026-05-06 12:21 | 52.29916 | 4.75534 | -3 ft | 23 kts | 239° |
| 2026-05-06 12:21 | 52.29836 | 4.75294 | -3 ft | 25 kts | 258° |
| 2026-05-06 12:21 | 52.29917 | 4.75059 | -3 ft | 25 kts | 311° |
| 2026-05-06 12:22 | 52.30032 | 4.74842 | -3 ft | 26 kts | 311° |
| 2026-05-06 12:22 | 52.30146 | 4.74632 | 9 ft | 22 kts | 309° |
| 2026-05-06 12:22 | 52.30251 | 4.74439 | 8 ft | 23 kts | 311° |
| 2026-05-06 12:22 | 52.30370 | 4.74211 | -3 ft | 28 kts | 312° |
| 2026-05-06 12:23 | 52.30426 | 4.74030 | -3 ft | 9 kts | 236° |
| 2026-05-06 12:23 | 52.30404 | 4.73927 | -4 ft | 7 kts | 272° |
| 2026-05-06 12:23 | 52.30405 | 4.73918 | -4 ft | 1 kts | 272° |
| 2026-05-06 12:23 | 52.30406 | 4.73862 | -4 ft | 7 kts | 273° |
| 2026-05-06 12:24 | 52.30432 | 4.73769 | -5 ft | 10 kts | 331° |
| 2026-05-06 12:24 | 52.30515 | 4.73766 | -5 ft | 18 kts | 4° |
| 2026-05-06 12:24 | 52.30725 | 4.73786 | -3 ft | 56 kts | 3° |
| 2026-05-06 12:24 | 52.31405 | 4.73850 | -2 ft | 137 kts | 4° |
| 2026-05-06 12:25 | 52.32469 | 4.73959 | 601 ft | 165 kts | 9° |
| 2026-05-06 12:25 | 52.33681 | 4.74083 | 1409 ft | 181 kts | 6° |
| 2026-05-06 12:25 | 52.34981 | 4.74204 | 2144 ft | 192 kts | 13° |
| 2026-05-06 12:25 | 52.36211 | 4.75041 | 2960 ft | 191 kts | 31° |
| 2026-05-06 12:26 | 52.37348 | 4.76217 | 3692 ft | 200 kts | 36° |
| 2026-05-06 12:26 | 52.38430 | 4.77712 | 4531 ft | 210 kts | 43° |
| 2026-05-06 12:26 | 52.39545 | 4.79545 | 4926 ft | 243 kts | 46° |
| 2026-05-06 12:26 | 52.40736 | 4.81682 | 5523 ft | 260 kts | 47° |
| 2026-05-06 12:27 | 52.41970 | 4.83879 | 6518 ft | 262 kts | 46° |
| 2026-05-06 12:27 | 52.43400 | 4.85714 | 7456 ft | 264 kts | 25° |
| 2026-05-06 12:27 | 52.45208 | 4.86273 | 8334 ft | 269 kts | 0° |
| 2026-05-06 12:27 | 52.47093 | 4.86145 | 9164 ft | 274 kts | 359° |
| 2026-05-06 12:28 | 52.49016 | 4.85987 | 10016 ft | 279 kts | 358° |
| 2026-05-06 12:28 | 52.51013 | 4.85765 | 10515 ft | 297 kts | 356° |
| 2026-05-06 12:28 | 52.53123 | 4.85773 | 11069 ft | 310 kts | 10° |
| 2026-05-06 12:28 | 52.55125 | 4.87094 | 11853 ft | 316 kts | 33° |
| 2026-05-06 12:29 | 52.56683 | 4.89651 | 12649 ft | 322 kts | 54° |
| 2026-05-06 12:29 | 52.57918 | 4.92753 | 13518 ft | 327 kts | 57° |
| 2026-05-06 12:29 | 52.59102 | 4.95975 | 14345 ft | 332 kts | 56° |
| 2026-05-06 12:29 | 52.60446 | 4.99112 | 15183 ft | 338 kts | 52° |
| 2026-05-06 12:30 | 52.61908 | 5.02175 | 16021 ft | 343 kts | 50° |
| 2026-05-06 12:30 | 52.63423 | 5.05242 | 16827 ft | 348 kts | 50° |
| 2026-05-06 12:30 | 52.64954 | 5.08381 | 17574 ft | 354 kts | 51° |
| 2026-05-06 12:30 | 52.66499 | 5.11579 | 18330 ft | 360 kts | 51° |
| 2026-05-06 12:31 | 52.68067 | 5.14831 | 19092 ft | 364 kts | 51° |
| 2026-05-06 12:31 | 52.69650 | 5.18122 | 19832 ft | 369 kts | 51° |
| 2026-05-06 12:31 | 52.71251 | 5.21458 | 20549 ft | 374 kts | 51° |
| 2026-05-06 12:31 | 52.72876 | 5.24844 | 21202 ft | 378 kts | 51° |
| 2026-05-06 12:32 | 52.74252 | 5.28562 | 21793 ft | 382 kts | 67° |
| 2026-05-06 12:32 | 52.75218 | 5.32667 | 22374 ft | 386 kts | 70° |
| 2026-05-06 12:32 | 52.76115 | 5.36879 | 22880 ft | 393 kts | 71° |
| 2026-05-06 12:32 | 52.77038 | 5.41237 | 22921 ft | 412 kts | 71° |
| 2026-05-06 12:33 | 52.78002 | 5.45774 | 22931 ft | 423 kts | 71° |
| 2026-05-06 12:33 | 52.78983 | 5.50376 | 22935 ft | 426 kts | 71° |
| 2026-05-06 12:33 | 52.79636 | 5.53436 | 22904 ft | 428 kts | 71° |
| 2026-05-06 12:33 | 52.80962 | 5.59646 | 22895 ft | 428 kts | 71° |
| 2026-05-06 12:34 | 52.81947 | 5.64286 | 22900 ft | 429 kts | 71° |
| 2026-05-06 12:34 | 52.82612 | 5.67357 | 22922 ft | 429 kts | 70° |
| 2026-05-06 12:34 | 52.83600 | 5.72014 | 22898 ft | 429 kts | 71° |
| 2026-05-06 12:34 | 52.84570 | 5.76670 | 22918 ft | 429 kts | 71° |
| 2026-05-06 12:35 | 52.85549 | 5.81332 | 22901 ft | 428 kts | 71° |
| 2026-05-06 12:35 | 52.86546 | 5.85976 | 22903 ft | 429 kts | 71° |
| 2026-05-06 12:35 | 52.87533 | 5.90639 | 22906 ft | 429 kts | 71° |
| 2026-05-06 12:35 | 52.88507 | 5.95295 | 22905 ft | 429 kts | 71° |
| 2026-05-06 12:36 | 52.89482 | 5.99971 | 22893 ft | 429 kts | 71° |
| 2026-05-06 12:36 | 52.90368 | 6.04669 | 22905 ft | 427 kts | 78° |
| 2026-05-06 12:36 | 52.90724 | 6.09544 | 22922 ft | 427 kts | 87° |
| 2026-05-06 12:36 | 52.90834 | 6.14450 | 22890 ft | 427 kts | 89° |
| 2026-05-06 12:37 | 52.90933 | 6.19357 | 22893 ft | 426 kts | 89° |
| 2026-05-06 12:37 | 52.91055 | 6.24268 | 22886 ft | 426 kts | 88° |
| 2026-05-06 12:37 | 52.91238 | 6.29168 | 22898 ft | 426 kts | 83° |
| 2026-05-06 12:37 | 52.91783 | 6.33991 | 22896 ft | 427 kts | 78° |
| 2026-05-06 12:38 | 52.92347 | 6.38824 | 22892 ft | 427 kts | 81° |
| 2026-05-06 12:38 | 52.92782 | 6.43695 | 22885 ft | 427 kts | 83° |
| 2026-05-06 12:38 | 52.93135 | 6.48578 | 22889 ft | 427 kts | 84° |
| 2026-05-06 12:38 | 52.93455 | 6.53476 | 22887 ft | 427 kts | 85° |
| 2026-05-06 12:39 | 52.93762 | 6.58365 | 22885 ft | 427 kts | 85° |
| 2026-05-06 12:39 | 52.94064 | 6.63257 | 22889 ft | 427 kts | 85° |
| 2026-05-06 12:39 | 52.94366 | 6.68158 | 22889 ft | 427 kts | 85° |
| 2026-05-06 12:39 | 52.94662 | 6.73055 | 22884 ft | 427 kts | 85° |
| 2026-05-06 12:40 | 52.94958 | 6.77957 | 22887 ft | 427 kts | 85° |
| 2026-05-06 12:40 | 52.95254 | 6.82855 | 22885 ft | 427 kts | 85° |
| 2026-05-06 12:40 | 52.95546 | 6.87733 | 22884 ft | 427 kts | 85° |
| 2026-05-06 12:40 | 52.95839 | 6.92652 | 22892 ft | 427 kts | 85° |
| 2026-05-06 12:41 | 52.96125 | 6.97429 | 22850 ft | 406 kts | 85° |
| 2026-05-06 12:41 | 52.96397 | 7.02008 | 22847 ft | 394 kts | 86° |
| 2026-05-06 12:41 | 52.96659 | 7.06530 | 22908 ft | 394 kts | 86° |
| 2026-05-06 12:41 | 52.96918 | 7.11054 | 22901 ft | 394 kts | 86° |
| 2026-05-06 12:42 | 52.97177 | 7.15595 | 22348 ft | 400 kts | 86° |
| 2026-05-06 12:42 | 52.97431 | 7.20160 | 21298 ft | 404 kts | 86° |
| 2026-05-06 12:42 | 52.97690 | 7.24886 | 20133 ft | 408 kts | 86° |
| 2026-05-06 12:42 | 52.97948 | 7.29556 | 18891 ft | 400 kts | 86° |
| 2026-05-06 12:43 | 52.98190 | 7.33917 | 18417 ft | 370 kts | 86° |
| 2026-05-06 12:43 | 52.98428 | 7.38188 | 17971 ft | 365 kts | 86° |
| 2026-05-06 12:43 | 52.98656 | 7.42323 | 17471 ft | 363 kts | 86° |
| 2026-05-06 12:43 | 52.98884 | 7.46468 | 17001 ft | 361 kts | 86° |
| 2026-05-06 12:44 | 52.99109 | 7.50606 | 16521 ft | 358 kts | 86° |
| 2026-05-06 12:44 | 52.99327 | 7.54698 | 16050 ft | 355 kts | 86° |
| 2026-05-06 12:44 | 52.99543 | 7.58763 | 15581 ft | 352 kts | 86° |
| 2026-05-06 12:44 | 52.99760 | 7.62805 | 15112 ft | 350 kts | 86° |
| 2026-05-06 12:45 | 52.99974 | 7.66812 | 14649 ft | 346 kts | 86° |
| 2026-05-06 12:45 | 53.00184 | 7.70755 | 14173 ft | 339 kts | 86° |
| 2026-05-06 12:45 | 53.00586 | 7.78402 | 13285 ft | 326 kts | 86° |
| 2026-05-06 12:46 | 53.00779 | 7.82123 | 12863 ft | 320 kts | 86° |
| 2026-05-06 12:46 | 53.00969 | 7.85771 | 12439 ft | 315 kts | 86° |
| 2026-05-06 12:46 | 53.01155 | 7.89373 | 12022 ft | 310 kts | 86° |
| 2026-05-06 12:46 | 53.01338 | 7.92886 | 11762 ft | 301 kts | 86° |
| 2026-05-06 12:47 | 53.01516 | 7.96345 | 11328 ft | 300 kts | 86° |
| 2026-05-06 12:47 | 53.01689 | 7.99776 | 10942 ft | 297 kts | 86° |
| 2026-05-06 12:47 | 53.01861 | 8.03166 | 10550 ft | 294 kts | 86° |
| 2026-05-06 12:47 | 53.02031 | 8.06536 | 10162 ft | 291 kts | 86° |
| 2026-05-06 12:48 | 53.02199 | 8.09870 | 9778 ft | 288 kts | 86° |
| 2026-05-06 12:48 | 53.02366 | 8.13172 | 9398 ft | 286 kts | 86° |
| 2026-05-06 12:48 | 53.02527 | 8.16443 | 9019 ft | 283 kts | 86° |
| 2026-05-06 12:48 | 53.02810 | 8.19650 | 8627 ft | 280 kts | 75° |
| 2026-05-06 12:49 | 53.03296 | 8.22753 | 8254 ft | 276 kts | 81° |
| 2026-05-06 12:49 | 53.03396 | 8.25911 | 7920 ft | 270 kts | 91° |
| 2026-05-06 12:49 | 53.03388 | 8.28965 | 7606 ft | 257 kts | 87° |
| 2026-05-06 12:49 | 53.03518 | 8.31830 | 7290 ft | 248 kts | 85° |
| 2026-05-06 12:50 | 53.03617 | 8.34676 | 6945 ft | 244 kts | 88° |
| 2026-05-06 12:50 | 53.03664 | 8.37449 | 6605 ft | 237 kts | 87° |
| 2026-05-06 12:50 | 53.03740 | 8.40159 | 6274 ft | 234 kts | 86° |
| 2026-05-06 12:50 | 53.03815 | 8.42839 | 5957 ft | 231 kts | 87° |
| 2026-05-06 12:51 | 53.03880 | 8.45490 | 5645 ft | 229 kts | 87° |
| 2026-05-06 12:51 | 53.03948 | 8.48131 | 5333 ft | 228 kts | 86° |
| 2026-05-06 12:51 | 53.04014 | 8.50749 | 5029 ft | 227 kts | 86° |
| 2026-05-06 12:51 | 53.04079 | 8.53356 | 4719 ft | 222 kts | 86° |
| 2026-05-06 12:52 | 53.04143 | 8.55839 | 4395 ft | 209 kts | 86° |
| 2026-05-06 12:52 | 53.04200 | 8.58190 | 4093 ft | 197 kts | 86° |
| 2026-05-06 12:52 | 53.04251 | 8.60336 | 3820 ft | 175 kts | 85° |
| 2026-05-06 12:52 | 53.04299 | 8.62261 | 3513 ft | 161 kts | 85° |
| 2026-05-06 12:53 | 53.04343 | 8.64050 | 3112 ft | 153 kts | 84° |
| 2026-05-06 12:53 | 53.04389 | 8.65863 | 2475 ft | 160 kts | 84° |
| 2026-05-06 12:53 | 53.04434 | 8.67734 | 1802 ft | 165 kts | 85° |
| 2026-05-06 12:53 | 53.04479 | 8.69658 | 1144 ft | 167 kts | 85° |
| 2026-05-06 12:54 | 53.04523 | 8.71549 | 741 ft | 155 kts | 85° |
| 2026-05-06 12:54 | 53.04569 | 8.73247 | 495 ft | 142 kts | 85° |
| 2026-05-06 12:54 | 53.04603 | 8.74820 | 309 ft | 132 kts | 86° |
| 2026-05-06 12:54 | 53.04635 | 8.76320 | 180 ft | 128 kts | 86° |
| 2026-05-06 12:55 | 53.04666 | 8.77788 | 25 ft | 127 kts | 86° |
| 2026-05-06 12:55 | 53.04699 | 8.79086 | 20 ft | 92 kts | 89° |
| 2026-05-06 12:55 | 53.04719 | 8.79884 | 20 ft | 35 kts | 71° |
| 2026-05-06 12:55 | 53.04821 | 8.79970 | 23 ft | 17 kts | 346° |
| 2026-05-06 12:56 | 53.04874 | 8.79811 | 23 ft | 17 kts | 270° |
| 2026-05-06 12:56 | 53.04871 | 8.79611 | 21 ft | 19 kts | 268° |
| 2026-05-06 12:56 | 53.04867 | 8.79383 | 20 ft | 21 kts | 268° |
| 2026-05-06 12:56 | 53.04859 | 8.79137 | 19 ft | 22 kts | 267° |
| 2026-05-06 12:57 | 53.04853 | 8.78864 | 18 ft | 24 kts | 268° |
| 2026-05-06 12:57 | 53.04903 | 8.78665 | 20 ft | 18 kts | 348° |
| 2026-05-06 12:57 | 53.05020 | 8.78597 | 20 ft | 18 kts | 317° |
| 2026-05-06 12:57 | 53.05086 | 8.78500 | 20 ft | 12 kts | 320° |
| 2026-05-06 12:58 | 53.05128 | 8.78464 | 20 ft | 4 kts | 34° |
| 2026-05-06 12:58 | 53.05153 | 8.78507 | 20 ft | 6 kts | 48° |
| 2026-05-06 12:58 | 53.05164 | 8.78526 | 20 ft | 1 kts | 46° |
| 2026-05-06 12:58 | 53.05167 | 8.78532 | 20 ft | 0 kts | 46° |